Christchurch, New Zealand

9:27 AM NZST on September 02, 2014 (GMT +1200)
Christchurch International | Change Station
CLOSE
Current Station
Airport
Location: Christchurch,
Elevation: 125 ft
Nearby Weather Stations

Elev 125 ft 43.48 °S, 172.55 °E | Updated 27 minutes ago

Scattered Clouds
Scattered Clouds
43 °F
Feels Like 37 °F
N
10
Wind Variable Wind from NE

Today
High -- | Low -- °F
--% Chance of Precip.
Yesterday
High -- | Low -- °F
Precip. -- in
6:56 AM 6:03 PM
Waxing Crescent, 44% visible
Pressure 30.06 in
Visibility 6.2 miles
Clouds Scattered Clouds 1000 ft
Windchill 37 °F
Dew Point 41 °F
Humidity 93%
Rainfall 0.00 in
Snow Depth Not available.
UV 1 out of 12
Pollen Not available.
Air Quality Not available.
Flu Activity Not available.
METAR NZCH 012100Z AUTO 04009KT 9999 SCT010/// 06/05 Q1018 NOSIG

More Conditions Fewer Conditions

Pressure 30.06 in
Visibility 6.2 miles
Clouds Scattered Clouds 1000 ft
Windchill 37 °F
Dew Point 41 °F
Humidity 93%
Rainfall 0.00 in
Snow Depth Not available.
UV 1 out of 12
Pollen Not available.
Air Quality Not available.
Flu Activity Not available.
METAR NZCH 012100Z AUTO 04009KT 9999 SCT010/// 06/05 Q1018 NOSIG

More Conditions Fewer Conditions

10-Day Weather Forecast

Almanac

Astronomy

Sep. 02, 2014 Rise Set
Actual Time 6:56 AM NZST 6:03 PM NZST
Civil Twilight 6:27 AM NZST 6:32 PM NZST
Nautical Twilight 5:54 AM NZST 7:05 PM NZST
Astronomical Twilight 5:21 AM NZST 7:38 PM NZST
Moon 10:45 AM NZST (9/2) 12:35 AM NZST (9/2)
Length of Visible Light 12h 05m
Length of Day
11h 07m
Tomorrow will be 2m 50s longer.
Waxing Crescent, 44% of the Moon is Illuminated
Sep 1
Waxing Crescent
Sep 2
First Quarter
Sep 8
Full
Sep 15
Last Quarter
Sep 24
New

Yesterday's Extremes

Country Highs Country Lows

Community

WunderPhotos

Upload Photos

1,749,413 photos uploaded!

WunderBlogs® & News

Nearby

Snow Depth

Not available.

Earthquake Activity

City Distance Mag. Time & Date
No recent earthquake activity has been reported nearby.
Minimum magnitude displayed is 2.5.

Coastal Water Temperatures

Place Temperature
No Stations Reporting

Nearby Weather Stations